Aérodrome :
LOGIN :

S'inscrire | Disclaimer

   EN    FR    IT 

 










Légende :    VFR   VFR Marginal   IFR   IFR Intensif   IFR Très Intensif
Visi : 
Plafond : 
>= 8 km
>= 3000ft
5 à 8 km
1000 à 3000 ft
1500m à 5 km
500 à 1000 ft
800 à 1500m
200 à 500 ft
< 800m
< 200 ft
Symboles :   Orages  Brouillard  Fortes neiges  Fortes précipitations  Vent > 20 kt
SIGMETs :   Divers  Orages  Givrage  Turbulence  Onde Orograph.  Cendres Volcan.






- Altitude de l'aérodrome : 587 ft
- Code IATA : XCR


LFOK - Chalons Vatry

DERNIER METAR :
  • 041600Z AUTO 16005KT 110V210 9999 BKN036 BKN056 BKN100 20/13 Q1012 TEMPO 2000 SHRA BKN030CB

METARs EXPIRÉS :
  • 041530Z AUTO VRB02KT 9999 FEW037 SCT120 21/13 Q1012 TEMPO 2000 SHRA BKN030CB
  • 041500Z AUTO 15005KT 110V200 9999 FEW035 BKN100 BKN140 21/12 Q1012 TEMPO 2000 SHRA BKN030CB
  • 041430Z AUTO 12003KT 080V180 9999 BKN033/// BKN100/// ///TCU 20/12 Q1012 TEMPO 2000 SHRA BKN030CB
  • 041400Z AUTO VRB02KT 9999 FEW032 SCT062 BKN120 20/13 Q1013 TEMPO 2000 SHRA BKN030CB
  • 041330Z AUTO 08003KT 020V150 9999 FEW031 SCT062 OVC140 20/13 Q1013 TEMPO 2000 SHRA BKN030CB

TAF TAF LFOK
Valide du 04 à 12h jusqu'au 05 à 12h UTC


041100Z 0412/0512 VRB03KT 9999 BKN030
TEMPO 0415/0420 2000 SHRA BKN030CB
BECMG 0500/0504 3000 BR OVC004
BECMG 0507/0509 9999 NSW BKN030
BECMG 0509/0511 21013KT
TEMPO 0511/0512 SHRA BKN020TCU



MET'MAP, la Météo Aéronautique d'un coup d'oeil ! - Copyright ORBIFLY Décembre 2007 - Disclaimer

ORBIFLY MET'MAP TEAM :

Programmation & Développement : Alexandra Zaïnal
Sur une idée originale de : Baudouin d'Aumeries
Assistance à la programmation : Marc-Olivier Méhu
Soutien technique & logistique : Manuel Goepfert

Contact : metmap@orbifly.com




SOURCES & CREDITS :

   NOAA